sensor_id;sensor_type;location;lat;lon;timestamp;P1;durP1;ratioP1;P2;durP2;ratioP2
32026;SDS011;18543;50.848;4.596;2023-04-23T00:01:14;8.07;;;5.68;;
32026;SDS011;18543;50.848;4.596;2023-04-23T00:03:43;7.55;;;5.32;;
32026;SDS011;18543;50.848;4.596;2023-04-23T00:06:10;6.75;;;5.38;;
32026;SDS011;18543;50.848;4.596;2023-04-23T00:08:39;8.55;;;4.97;;
32026;SDS011;18543;50.848;4.596;2023-04-23T00:11:06;7.13;;;5.40;;
32026;SDS011;18543;50.848;4.596;2023-04-23T00:13:34;6.32;;;4.85;;
32026;SDS011;18543;50.848;4.596;2023-04-23T00:16:02;7.65;;;5.15;;
32026;SDS011;18543;50.848;4.596;2023-04-23T00:18:29;7.60;;;5.07;;
32026;SDS011;18543;50.848;4.596;2023-04-23T00:20:56;7.03;;;5.20;;
32026;SDS011;18543;50.848;4.596;2023-04-23T00:23:24;7.75;;;5.18;;
32026;SDS011;18543;50.848;4.596;2023-04-23T00:25:51;8.10;;;5.10;;
32026;SDS011;18543;50.848;4.596;2023-04-23T00:28:19;8.57;;;5.10;;
32026;SDS011;18543;50.848;4.596;2023-04-23T00:30:47;9.05;;;5.25;;
32026;SDS011;18543;50.848;4.596;2023-04-23T00:33:14;6.67;;;4.83;;
32026;SDS011;18543;50.848;4.596;2023-04-23T00:35:42;6.50;;;5.13;;
32026;SDS011;18543;50.848;4.596;2023-04-23T00:38:09;6.03;;;4.63;;
32026;SDS011;18543;50.848;4.596;2023-04-23T00:40:36;5.67;;;4.40;;
32026;SDS011;18543;50.848;4.596;2023-04-23T00:43:03;8.53;;;5.23;;
32026;SDS011;18543;50.848;4.596;2023-04-23T00:45:31;9.23;;;5.40;;
32026;SDS011;18543;50.848;4.596;2023-04-23T00:47:58;6.35;;;4.70;;
32026;SDS011;18543;50.848;4.596;2023-04-23T00:50:25;7.13;;;4.60;;
32026;SDS011;18543;50.848;4.596;2023-04-23T00:52:53;7.07;;;4.70;;
32026;SDS011;18543;50.848;4.596;2023-04-23T00:55:20;6.73;;;4.90;;
32026;SDS011;18543;50.848;4.596;2023-04-23T00:57:47;7.15;;;5.20;;
32026;SDS011;18543;50.848;4.596;2023-04-23T01:00:15;6.22;;;4.38;;
32026;SDS011;18543;50.848;4.596;2023-04-23T01:02:43;7.38;;;5.07;;
32026;SDS011;18543;50.848;4.596;2023-04-23T01:07:38;6.72;;;4.47;;
32026;SDS011;18543;50.848;4.596;2023-04-23T01:10:06;7.28;;;4.43;;
32026;SDS011;18543;50.848;4.596;2023-04-23T01:12:33;7.47;;;4.75;;
32026;SDS011;18543;50.848;4.596;2023-04-23T01:15:01;6.65;;;4.80;;
32026;SDS011;18543;50.848;4.596;2023-04-23T01:17:29;6.28;;;4.53;;
32026;SDS011;18543;50.848;4.596;2023-04-23T01:19:57;6.00;;;4.40;;
32026;SDS011;18543;50.848;4.596;2023-04-23T01:22:24;6.63;;;4.40;;
32026;SDS011;18543;50.848;4.596;2023-04-23T01:24:52;6.57;;;4.65;;
32026;SDS011;18543;50.848;4.596;2023-04-23T01:27:19;7.93;;;4.50;;
32026;SDS011;18543;50.848;4.596;2023-04-23T01:29:50;6.18;;;4.25;;
32026;SDS011;18543;50.848;4.596;2023-04-23T01:32:20;6.20;;;4.47;;
32026;SDS011;18543;50.848;4.596;2023-04-23T01:34:47;7.10;;;4.30;;
32026;SDS011;18543;50.848;4.596;2023-04-23T01:37:15;5.22;;;4.00;;
32026;SDS011;18543;50.848;4.596;2023-04-23T01:39:42;6.28;;;4.40;;
32026;SDS011;18543;50.848;4.596;2023-04-23T01:42:10;5.35;;;4.15;;
32026;SDS011;18543;50.848;4.596;2023-04-23T01:44:37;4.77;;;4.27;;
32026;SDS011;18543;50.848;4.596;2023-04-23T01:47:05;4.78;;;3.97;;
32026;SDS011;18543;50.848;4.596;2023-04-23T01:49:32;5.28;;;4.40;;
32026;SDS011;18543;50.848;4.596;2023-04-23T01:52:02;4.15;;;3.75;;
32026;SDS011;18543;50.848;4.596;2023-04-23T01:54:29;5.65;;;4.25;;
32026;SDS011;18543;50.848;4.596;2023-04-23T01:56:56;5.20;;;4.25;;
32026;SDS011;18543;50.848;4.596;2023-04-23T01:59:24;5.72;;;4.00;;
32026;SDS011;18543;50.848;4.596;2023-04-23T02:01:51;5.03;;;3.83;;
32026;SDS011;18543;50.848;4.596;2023-04-23T02:04:19;4.05;;;3.65;;
32026;SDS011;18543;50.848;4.596;2023-04-23T02:06:47;4.70;;;3.95;;
32026;SDS011;18543;50.848;4.596;2023-04-23T02:09:15;6.72;;;4.07;;
32026;SDS011;18543;50.848;4.596;2023-04-23T02:11:42;6.00;;;4.03;;
32026;SDS011;18543;50.848;4.596;2023-04-23T02:14:10;6.53;;;4.13;;
32026;SDS011;18543;50.848;4.596;2023-04-23T02:16:37;6.00;;;3.92;;
32026;SDS011;18543;50.848;4.596;2023-04-23T02:19:05;5.10;;;3.72;;
32026;SDS011;18543;50.848;4.596;2023-04-23T02:21:32;5.53;;;3.90;;
32026;SDS011;18543;50.848;4.596;2023-04-23T02:23:59;5.97;;;4.03;;
32026;SDS011;18543;50.848;4.596;2023-04-23T02:26:26;5.20;;;3.87;;
32026;SDS011;18543;50.848;4.596;2023-04-23T02:28:54;4.78;;;4.00;;
32026;SDS011;18543;50.848;4.596;2023-04-23T02:31:21;4.40;;;3.73;;
32026;SDS011;18543;50.848;4.596;2023-04-23T02:33:49;4.65;;;3.75;;
32026;SDS011;18543;50.848;4.596;2023-04-23T02:36:16;5.13;;;3.97;;
32026;SDS011;18543;50.848;4.596;2023-04-23T02:38:43;4.50;;;3.70;;
32026;SDS011;18543;50.848;4.596;2023-04-23T02:41:12;4.93;;;4.13;;
32026;SDS011;18543;50.848;4.596;2023-04-23T02:43:39;5.32;;;3.65;;
32026;SDS011;18543;50.848;4.596;2023-04-23T02:46:07;5.30;;;3.97;;
32026;SDS011;18543;50.848;4.596;2023-04-23T02:48:38;5.18;;;3.70;;
32026;SDS011;18543;50.848;4.596;2023-04-23T02:51:09;5.05;;;3.50;;
32026;SDS011;18543;50.848;4.596;2023-04-23T02:53:36;5.53;;;4.25;;
32026;SDS011;18543;50.848;4.596;2023-04-23T02:56:04;3.92;;;3.35;;
32026;SDS011;18543;50.848;4.596;2023-04-23T02:58:32;4.97;;;3.60;;
32026;SDS011;18543;50.848;4.596;2023-04-23T03:01:00;6.77;;;4.00;;
32026;SDS011;18543;50.848;4.596;2023-04-23T03:03:28;4.68;;;3.88;;
32026;SDS011;18543;50.848;4.596;2023-04-23T03:05:58;5.15;;;3.72;;
32026;SDS011;18543;50.848;4.596;2023-04-23T03:10:53;6.32;;;3.85;;
32026;SDS011;18543;50.848;4.596;2023-04-23T03:13:20;5.77;;;3.80;;
32026;SDS011;18543;50.848;4.596;2023-04-23T03:15:47;6.53;;;3.85;;
32026;SDS011;18543;50.848;4.596;2023-04-23T03:18:15;5.40;;;4.22;;
32026;SDS011;18543;50.848;4.596;2023-04-23T03:20:42;4.20;;;3.80;;
32026;SDS011;18543;50.848;4.596;2023-04-23T03:23:09;4.60;;;3.90;;
32026;SDS011;18543;50.848;4.596;2023-04-23T03:25:39;5.20;;;3.40;;
32026;SDS011;18543;50.848;4.596;2023-04-23T03:28:06;5.10;;;3.85;;
32026;SDS011;18543;50.848;4.596;2023-04-23T03:30:35;6.28;;;3.70;;
32026;SDS011;18543;50.848;4.596;2023-04-23T03:33:03;5.40;;;3.42;;
32026;SDS011;18543;50.848;4.596;2023-04-23T03:35:30;4.95;;;3.67;;
32026;SDS011;18543;50.848;4.596;2023-04-23T03:37:57;4.63;;;3.33;;
32026;SDS011;18543;50.848;4.596;2023-04-23T03:40:25;4.00;;;3.60;;
32026;SDS011;18543;50.848;4.596;2023-04-23T03:42:52;4.03;;;3.37;;
32026;SDS011;18543;50.848;4.596;2023-04-23T03:45:19;4.43;;;3.67;;
32026;SDS011;18543;50.848;4.596;2023-04-23T03:47:47;4.25;;;3.60;;
32026;SDS011;18543;50.848;4.596;2023-04-23T03:50:14;5.27;;;3.60;;
32026;SDS011;18543;50.848;4.596;2023-04-23T03:52:42;5.00;;;3.40;;
32026;SDS011;18543;50.848;4.596;2023-04-23T03:55:10;4.90;;;3.60;;
32026;SDS011;18543;50.848;4.596;2023-04-23T03:57:37;5.18;;;3.45;;
32026;SDS011;18543;50.848;4.596;2023-04-23T04:00:04;4.70;;;3.73;;
32026;SDS011;18543;50.848;4.596;2023-04-23T04:02:38;4.75;;;3.53;;
32026;SDS011;18543;50.848;4.596;2023-04-23T04:05:06;4.60;;;3.50;;
32026;SDS011;18543;50.848;4.596;2023-04-23T04:07:36;3.85;;;3.30;;
32026;SDS011;18543;50.848;4.596;2023-04-23T04:10:04;4.30;;;3.42;;
32026;SDS011;18543;50.848;4.596;2023-04-23T04:12:32;4.53;;;3.67;;
32026;SDS011;18543;50.848;4.596;2023-04-23T04:14:59;3.63;;;3.27;;
32026;SDS011;18543;50.848;4.596;2023-04-23T04:17:28;3.92;;;3.22;;
32026;SDS011;18543;50.848;4.596;2023-04-23T04:19:55;3.90;;;3.50;;
32026;SDS011;18543;50.848;4.596;2023-04-23T04:22:22;3.67;;;3.33;;
32026;SDS011;18543;50.848;4.596;2023-04-23T04:24:49;5.10;;;3.42;;
32026;SDS011;18543;50.848;4.596;2023-04-23T04:27:18;3.65;;;3.30;;
32026;SDS011;18543;50.848;4.596;2023-04-23T04:29:45;3.90;;;3.25;;
32026;SDS011;18543;50.848;4.596;2023-04-23T04:32:13;5.13;;;3.25;;
32026;SDS011;18543;50.848;4.596;2023-04-23T04:34:41;3.97;;;3.28;;
32026;SDS011;18543;50.848;4.596;2023-04-23T04:37:09;3.50;;;3.00;;
32026;SDS011;18543;50.848;4.596;2023-04-23T04:39:36;4.15;;;3.38;;
32026;SDS011;18543;50.848;4.596;2023-04-23T04:42:04;4.43;;;3.53;;
32026;SDS011;18543;50.848;4.596;2023-04-23T04:44:32;5.72;;;3.13;;
32026;SDS011;18543;50.848;4.596;2023-04-23T04:47:03;4.07;;;3.35;;
32026;SDS011;18543;50.848;4.596;2023-04-23T04:49:30;5.60;;;3.33;;
32026;SDS011;18543;50.848;4.596;2023-04-23T04:51:58;3.63;;;3.33;;
32026;SDS011;18543;50.848;4.596;2023-04-23T04:54:25;4.97;;;3.42;;
32026;SDS011;18543;50.848;4.596;2023-04-23T04:56:53;3.85;;;3.47;;
32026;SDS011;18543;50.848;4.596;2023-04-23T04:59:20;6.10;;;3.17;;
32026;SDS011;18543;50.848;4.596;2023-04-23T05:01:47;5.05;;;3.65;;
32026;SDS011;18543;50.848;4.596;2023-04-23T05:04:14;4.20;;;3.43;;
32026;SDS011;18543;50.848;4.596;2023-04-23T05:06:42;5.65;;;3.33;;
32026;SDS011;18543;50.848;4.596;2023-04-23T05:09:10;5.60;;;3.30;;
32026;SDS011;18543;50.848;4.596;2023-04-23T05:11:37;4.53;;;3.20;;
32026;SDS011;18543;50.848;4.596;2023-04-23T05:14:06;7.50;;;3.30;;
32026;SDS011;18543;50.848;4.596;2023-04-23T05:16:33;4.07;;;3.10;;
32026;SDS011;18543;50.848;4.596;2023-04-23T05:19:01;5.18;;;3.42;;
32026;SDS011;18543;50.848;4.596;2023-04-23T05:21:28;4.57;;;3.40;;
32026;SDS011;18543;50.848;4.596;2023-04-23T05:23:56;3.47;;;2.83;;
32026;SDS011;18543;50.848;4.596;2023-04-23T05:26:24;4.43;;;3.20;;
32026;SDS011;18543;50.848;4.596;2023-04-23T05:28:51;4.67;;;2.70;;
32026;SDS011;18543;50.848;4.596;2023-04-23T05:31:20;3.80;;;3.03;;
32026;SDS011;18543;50.848;4.596;2023-04-23T05:33:48;7.25;;;3.10;;
32026;SDS011;18543;50.848;4.596;2023-04-23T05:36:16;5.00;;;3.08;;
32026;SDS011;18543;50.848;4.596;2023-04-23T05:38:46;5.00;;;3.25;;
32026;SDS011;18543;50.848;4.596;2023-04-23T05:41:13;5.78;;;3.08;;
32026;SDS011;18543;50.848;4.596;2023-04-23T05:46:08;5.18;;;3.00;;
32026;SDS011;18543;50.848;4.596;2023-04-23T05:48:35;5.63;;;3.00;;
32026;SDS011;18543;50.848;4.596;2023-04-23T05:51:02;6.87;;;2.83;;
32026;SDS011;18543;50.848;4.596;2023-04-23T05:53:30;4.75;;;3.05;;
32026;SDS011;18543;50.848;4.596;2023-04-23T05:55:57;5.40;;;3.33;;
32026;SDS011;18543;50.848;4.596;2023-04-23T05:58:25;5.45;;;2.92;;
32026;SDS011;18543;50.848;4.596;2023-04-23T06:00:52;4.95;;;3.15;;
32026;SDS011;18543;50.848;4.596;2023-04-23T06:03:20;9.40;;;3.22;;
32026;SDS011;18543;50.848;4.596;2023-04-23T06:05:47;7.45;;;3.10;;
32026;SDS011;18543;50.848;4.596;2023-04-23T06:08:15;6.35;;;3.22;;
32026;SDS011;18543;50.848;4.596;2023-04-23T06:10:42;5.03;;;3.10;;
32026;SDS011;18543;50.848;4.596;2023-04-23T06:13:09;8.53;;;3.50;;
32026;SDS011;18543;50.848;4.596;2023-04-23T06:15:37;5.93;;;3.15;;
32026;SDS011;18543;50.848;4.596;2023-04-23T06:18:04;10.87;;;3.97;;
32026;SDS011;18543;50.848;4.596;2023-04-23T06:20:32;9.65;;;3.30;;
32026;SDS011;18543;50.848;4.596;2023-04-23T06:22:59;4.93;;;3.27;;
32026;SDS011;18543;50.848;4.596;2023-04-23T06:25:28;5.07;;;3.00;;
32026;SDS011;18543;50.848;4.596;2023-04-23T06:27:55;4.87;;;3.60;;
32026;SDS011;18543;50.848;4.596;2023-04-23T06:32:50;9.30;;;5.37;;
32026;SDS011;18543;50.848;4.596;2023-04-23T06:35:18;11.02;;;5.40;;
32026;SDS011;18543;50.848;4.596;2023-04-23T06:37:45;11.55;;;5.70;;
32026;SDS011;18543;50.848;4.596;2023-04-23T06:40:13;9.67;;;5.23;;
32026;SDS011;18543;50.848;4.596;2023-04-23T06:42:41;9.73;;;5.28;;
32026;SDS011;18543;50.848;4.596;2023-04-23T06:45:08;9.63;;;5.07;;
32026;SDS011;18543;50.848;4.596;2023-04-23T06:47:35;7.00;;;4.72;;
32026;SDS011;18543;50.848;4.596;2023-04-23T06:50:03;8.50;;;4.70;;
32026;SDS011;18543;50.848;4.596;2023-04-23T06:52:31;7.80;;;4.57;;
32026;SDS011;18543;50.848;4.596;2023-04-23T06:54:58;9.80;;;4.33;;
32026;SDS011;18543;50.848;4.596;2023-04-23T06:57:26;9.03;;;4.17;;
32026;SDS011;18543;50.848;4.596;2023-04-23T07:02:21;7.77;;;4.30;;
32026;SDS011;18543;50.848;4.596;2023-04-23T07:04:48;5.80;;;3.50;;
32026;SDS011;18543;50.848;4.596;2023-04-23T07:07:15;8.13;;;4.00;;
32026;SDS011;18543;50.848;4.596;2023-04-23T07:09:43;8.50;;;4.25;;
32026;SDS011;18543;50.848;4.596;2023-04-23T07:12:10;6.53;;;3.38;;
32026;SDS011;18543;50.848;4.596;2023-04-23T07:14:37;9.83;;;3.93;;
32026;SDS011;18543;50.848;4.596;2023-04-23T07:17:05;7.90;;;3.47;;
32026;SDS011;18543;50.848;4.596;2023-04-23T07:19:32;7.93;;;3.30;;
32026;SDS011;18543;50.848;4.596;2023-04-23T07:22:00;7.43;;;3.70;;
32026;SDS011;18543;50.848;4.596;2023-04-23T07:24:27;6.90;;;3.03;;
32026;SDS011;18543;50.848;4.596;2023-04-23T07:26:54;7.55;;;3.55;;
32026;SDS011;18543;50.848;4.596;2023-04-23T07:29:21;7.40;;;3.20;;
32026;SDS011;18543;50.848;4.596;2023-04-23T07:31:49;7.55;;;3.20;;
32026;SDS011;18543;50.848;4.596;2023-04-23T07:34:16;10.13;;;3.17;;
32026;SDS011;18543;50.848;4.596;2023-04-23T07:36:43;9.40;;;3.33;;
32026;SDS011;18543;50.848;4.596;2023-04-23T07:39:11;7.75;;;2.72;;
32026;SDS011;18543;50.848;4.596;2023-04-23T07:41:38;7.43;;;3.05;;
32026;SDS011;18543;50.848;4.596;2023-04-23T07:44:05;8.17;;;2.60;;
32026;SDS011;18543;50.848;4.596;2023-04-23T07:46:33;6.30;;;2.80;;
32026;SDS011;18543;50.848;4.596;2023-04-23T07:49:00;8.77;;;2.83;;
32026;SDS011;18543;50.848;4.596;2023-04-23T07:51:27;12.57;;;3.40;;
32026;SDS011;18543;50.848;4.596;2023-04-23T07:53:55;7.37;;;2.50;;
32026;SDS011;18543;50.848;4.596;2023-04-23T07:56:23;8.95;;;2.80;;
32026;SDS011;18543;50.848;4.596;2023-04-23T07:58:51;9.10;;;3.08;;
32026;SDS011;18543;50.848;4.596;2023-04-23T08:01:19;7.25;;;2.67;;
32026;SDS011;18543;50.848;4.596;2023-04-23T08:03:46;8.50;;;2.85;;
32026;SDS011;18543;50.848;4.596;2023-04-23T08:06:14;6.30;;;2.60;;
32026;SDS011;18543;50.848;4.596;2023-04-23T08:08:43;5.93;;;2.63;;
32026;SDS011;18543;50.848;4.596;2023-04-23T08:11:10;8.52;;;3.05;;
32026;SDS011;18543;50.848;4.596;2023-04-23T08:13:38;5.57;;;2.50;;
32026;SDS011;18543;50.848;4.596;2023-04-23T08:16:05;9.50;;;2.87;;
32026;SDS011;18543;50.848;4.596;2023-04-23T08:18:32;5.50;;;2.63;;
32026;SDS011;18543;50.848;4.596;2023-04-23T08:21:00;5.57;;;2.50;;
32026;SDS011;18543;50.848;4.596;2023-04-23T08:23:27;6.10;;;2.53;;
32026;SDS011;18543;50.848;4.596;2023-04-23T08:25:54;3.88;;;2.58;;
32026;SDS011;18543;50.848;4.596;2023-04-23T08:28:22;7.28;;;2.72;;
32026;SDS011;18543;50.848;4.596;2023-04-23T08:30:53;5.70;;;2.47;;
32026;SDS011;18543;50.848;4.596;2023-04-23T08:33:22;6.20;;;2.60;;
32026;SDS011;18543;50.848;4.596;2023-04-23T08:35:50;4.97;;;2.72;;
32026;SDS011;18543;50.848;4.596;2023-04-23T08:38:17;5.75;;;2.30;;
32026;SDS011;18543;50.848;4.596;2023-04-23T08:40:47;5.13;;;2.60;;
32026;SDS011;18543;50.848;4.596;2023-04-23T08:43:17;4.00;;;2.40;;
32026;SDS011;18543;50.848;4.596;2023-04-23T08:45:46;8.88;;;2.70;;
32026;SDS011;18543;50.848;4.596;2023-04-23T08:48:13;5.30;;;2.60;;
32026;SDS011;18543;50.848;4.596;2023-04-23T08:50:41;5.15;;;2.40;;
32026;SDS011;18543;50.848;4.596;2023-04-23T08:53:09;3.58;;;2.25;;
32026;SDS011;18543;50.848;4.596;2023-04-23T08:55:36;5.25;;;2.60;;
32026;SDS011;18543;50.848;4.596;2023-04-23T08:58:04;5.53;;;2.25;;
32026;SDS011;18543;50.848;4.596;2023-04-23T09:00:32;6.45;;;2.40;;
32026;SDS011;18543;50.848;4.596;2023-04-23T09:03:00;2.78;;;2.22;;
32026;SDS011;18543;50.848;4.596;2023-04-23T09:05:28;5.18;;;2.40;;
32026;SDS011;18543;50.848;4.596;2023-04-23T09:07:56;9.20;;;2.33;;
32026;SDS011;18543;50.848;4.596;2023-04-23T09:10:25;3.90;;;2.30;;
32026;SDS011;18543;50.848;4.596;2023-04-23T09:12:52;5.27;;;2.60;;
32026;SDS011;18543;50.848;4.596;2023-04-23T09:15:19;5.17;;;2.60;;
32026;SDS011;18543;50.848;4.596;2023-04-23T09:17:47;6.13;;;2.60;;
32026;SDS011;18543;50.848;4.596;2023-04-23T09:20:15;4.35;;;2.30;;
32026;SDS011;18543;50.848;4.596;2023-04-23T09:22:47;6.10;;;2.78;;
32026;SDS011;18543;50.848;4.596;2023-04-23T09:25:15;6.15;;;2.60;;
32026;SDS011;18543;50.848;4.596;2023-04-23T09:27:44;3.20;;;2.03;;
32026;SDS011;18543;50.848;4.596;2023-04-23T09:30:11;3.65;;;2.30;;
32026;SDS011;18543;50.848;4.596;2023-04-23T09:32:40;4.85;;;2.33;;
32026;SDS011;18543;50.848;4.596;2023-04-23T09:35:09;4.70;;;2.20;;
32026;SDS011;18543;50.848;4.596;2023-04-23T09:37:37;4.65;;;2.53;;
32026;SDS011;18543;50.848;4.596;2023-04-23T09:40:07;3.85;;;2.33;;
32026;SDS011;18543;50.848;4.596;2023-04-23T09:45:06;4.55;;;2.30;;
32026;SDS011;18543;50.848;4.596;2023-04-23T09:47:34;5.68;;;2.22;;
32026;SDS011;18543;50.848;4.596;2023-04-23T09:50:04;3.67;;;2.22;;
32026;SDS011;18543;50.848;4.596;2023-04-23T09:52:32;4.15;;;2.33;;
32026;SDS011;18543;50.848;4.596;2023-04-23T09:55:00;5.60;;;2.10;;
32026;SDS011;18543;50.848;4.596;2023-04-23T09:57:27;4.22;;;2.40;;
32026;SDS011;18543;50.848;4.596;2023-04-23T09:59:55;3.83;;;2.20;;
32026;SDS011;18543;50.848;4.596;2023-04-23T10:02:36;4.00;;;2.10;;
32026;SDS011;18543;50.848;4.596;2023-04-23T10:05:18;3.35;;;2.25;;
32026;SDS011;18543;50.848;4.596;2023-04-23T10:07:51;3.15;;;2.08;;
32026;SDS011;18543;50.848;4.596;2023-04-23T10:10:18;4.78;;;2.40;;
32026;SDS011;18543;50.848;4.596;2023-04-23T10:12:46;4.80;;;2.30;;
32026;SDS011;18543;50.848;4.596;2023-04-23T10:15:20;3.95;;;2.10;;
32026;SDS011;18543;50.848;4.596;2023-04-23T10:17:49;3.80;;;2.00;;
32026;SDS011;18543;50.848;4.596;2023-04-23T10:20:16;4.38;;;2.40;;
32026;SDS011;18543;50.848;4.596;2023-04-23T10:22:46;3.15;;;2.10;;
32026;SDS011;18543;50.848;4.596;2023-04-23T10:25:14;5.00;;;2.22;;
32026;SDS011;18543;50.848;4.596;2023-04-23T10:27:42;3.23;;;2.20;;
32026;SDS011;18543;50.848;4.596;2023-04-23T10:30:20;5.82;;;2.40;;
32026;SDS011;18543;50.848;4.596;2023-04-23T10:32:48;5.85;;;2.50;;
32026;SDS011;18543;50.848;4.596;2023-04-23T10:35:16;3.40;;;2.20;;
32026;SDS011;18543;50.848;4.596;2023-04-23T10:37:43;4.97;;;2.20;;
32026;SDS011;18543;50.848;4.596;2023-04-23T10:40:12;3.33;;;2.00;;
32026;SDS011;18543;50.848;4.596;2023-04-23T10:42:41;4.40;;;2.20;;
32026;SDS011;18543;50.848;4.596;2023-04-23T10:45:16;4.32;;;2.13;;
32026;SDS011;18543;50.848;4.596;2023-04-23T10:47:46;5.53;;;2.10;;
32026;SDS011;18543;50.848;4.596;2023-04-23T10:50:21;3.90;;;2.13;;
32026;SDS011;18543;50.848;4.596;2023-04-23T10:52:49;3.10;;;1.90;;
32026;SDS011;18543;50.848;4.596;2023-04-23T10:55:19;4.07;;;1.90;;
32026;SDS011;18543;50.848;4.596;2023-04-23T10:58:01;3.47;;;2.15;;
32026;SDS011;18543;50.848;4.596;2023-04-23T11:00:40;3.90;;;2.15;;
32026;SDS011;18543;50.848;4.596;2023-04-23T11:05:59;3.50;;;2.00;;
32026;SDS011;18543;50.848;4.596;2023-04-23T11:08:28;3.95;;;1.80;;
32026;SDS011;18543;50.848;4.596;2023-04-23T11:10:58;4.40;;;1.95;;
32026;SDS011;18543;50.848;4.596;2023-04-23T11:16:11;2.90;;;1.90;;
32026;SDS011;18543;50.848;4.596;2023-04-23T11:18:55;3.75;;;1.90;;
32026;SDS011;18543;50.848;4.596;2023-04-23T11:21:33;2.85;;;2.03;;
32026;SDS011;18543;50.848;4.596;2023-04-23T11:24:09;4.13;;;2.17;;
32026;SDS011;18543;50.848;4.596;2023-04-23T11:26:36;2.35;;;1.83;;
32026;SDS011;18543;50.848;4.596;2023-04-23T11:29:04;2.65;;;1.67;;
32026;SDS011;18543;50.848;4.596;2023-04-23T11:31:32;2.85;;;1.80;;
32026;SDS011;18543;50.848;4.596;2023-04-23T11:34:01;2.10;;;1.67;;
32026;SDS011;18543;50.848;4.596;2023-04-23T11:36:28;3.88;;;2.00;;
32026;SDS011;18543;50.848;4.596;2023-04-23T11:38:57;4.35;;;2.00;;
32026;SDS011;18543;50.848;4.596;2023-04-23T11:41:25;5.17;;;1.90;;
32026;SDS011;18543;50.848;4.596;2023-04-23T11:43:55;1.98;;;1.67;;
32026;SDS011;18543;50.848;4.596;2023-04-23T11:46:25;2.65;;;1.80;;
32026;SDS011;18543;50.848;4.596;2023-04-23T11:48:53;3.85;;;1.85;;
32026;SDS011;18543;50.848;4.596;2023-04-23T11:51:26;2.72;;;1.77;;
32026;SDS011;18543;50.848;4.596;2023-04-23T11:53:54;2.95;;;1.80;;
32026;SDS011;18543;50.848;4.596;2023-04-23T11:56:31;3.33;;;1.98;;
32026;SDS011;18543;50.848;4.596;2023-04-23T11:58:58;3.42;;;2.00;;
32026;SDS011;18543;50.848;4.596;2023-04-23T12:01:38;2.58;;;1.88;;
32026;SDS011;18543;50.848;4.596;2023-04-23T12:04:13;2.30;;;1.95;;
32026;SDS011;18543;50.848;4.596;2023-04-23T12:06:42;2.55;;;1.65;;
32026;SDS011;18543;50.848;4.596;2023-04-23T12:09:12;3.97;;;2.15;;
32026;SDS011;18543;50.848;4.596;2023-04-23T12:11:40;2.50;;;1.70;;
32026;SDS011;18543;50.848;4.596;2023-04-23T12:14:08;4.50;;;1.70;;
32026;SDS011;18543;50.848;4.596;2023-04-23T12:19:07;2.72;;;1.83;;
32026;SDS011;18543;50.848;4.596;2023-04-23T12:21:45;3.45;;;1.83;;
32026;SDS011;18543;50.848;4.596;2023-04-23T12:24:13;3.03;;;1.60;;
32026;SDS011;18543;50.848;4.596;2023-04-23T12:26:41;3.25;;;1.95;;
32026;SDS011;18543;50.848;4.596;2023-04-23T12:29:11;2.83;;;1.70;;
32026;SDS011;18543;50.848;4.596;2023-04-23T12:31:40;2.63;;;1.88;;
32026;SDS011;18543;50.848;4.596;2023-04-23T12:34:09;2.53;;;1.80;;
32026;SDS011;18543;50.848;4.596;2023-04-23T12:36:42;2.30;;;1.80;;
32026;SDS011;18543;50.848;4.596;2023-04-23T12:41:50;2.83;;;1.83;;
32026;SDS011;18543;50.848;4.596;2023-04-23T12:44:21;3.35;;;1.65;;
32026;SDS011;18543;50.848;4.596;2023-04-23T12:46:48;3.63;;;1.90;;
32026;SDS011;18543;50.848;4.596;2023-04-23T12:49:16;2.38;;;1.73;;
32026;SDS011;18543;50.848;4.596;2023-04-23T12:51:44;2.00;;;1.80;;
32026;SDS011;18543;50.848;4.596;2023-04-23T12:54:11;4.13;;;1.93;;
32026;SDS011;18543;50.848;4.596;2023-04-23T12:56:38;2.35;;;1.77;;
32026;SDS011;18543;50.848;4.596;2023-04-23T12:59:06;2.50;;;1.73;;
32026;SDS011;18543;50.848;4.596;2023-04-23T13:01:33;3.10;;;1.77;;
32026;SDS011;18543;50.848;4.596;2023-04-23T13:04:00;3.33;;;1.70;;
32026;SDS011;18543;50.848;4.596;2023-04-23T13:06:28;2.20;;;1.50;;
32026;SDS011;18543;50.848;4.596;2023-04-23T13:08:55;2.33;;;1.50;;
32026;SDS011;18543;50.848;4.596;2023-04-23T13:11:22;2.50;;;1.50;;
32026;SDS011;18543;50.848;4.596;2023-04-23T13:13:52;2.97;;;1.80;;
32026;SDS011;18543;50.848;4.596;2023-04-23T13:16:19;2.60;;;1.55;;
32026;SDS011;18543;50.848;4.596;2023-04-23T13:18:47;3.80;;;1.70;;
32026;SDS011;18543;50.848;4.596;2023-04-23T13:21:17;1.92;;;1.65;;
32026;SDS011;18543;50.848;4.596;2023-04-23T13:23:44;4.57;;;2.05;;
32026;SDS011;18543;50.848;4.596;2023-04-23T13:26:11;2.00;;;1.60;;
32026;SDS011;18543;50.848;4.596;2023-04-23T13:28:39;2.58;;;1.90;;
32026;SDS011;18543;50.848;4.596;2023-04-23T13:31:06;2.50;;;1.50;;
32026;SDS011;18543;50.848;4.596;2023-04-23T13:33:33;1.67;;;1.58;;
32026;SDS011;18543;50.848;4.596;2023-04-23T13:36:01;2.47;;;1.73;;
32026;SDS011;18543;50.848;4.596;2023-04-23T13:38:28;1.85;;;1.63;;
32026;SDS011;18543;50.848;4.596;2023-04-23T13:40:56;2.83;;;1.88;;
32026;SDS011;18543;50.848;4.596;2023-04-23T13:43:23;3.13;;;1.60;;
32026;SDS011;18543;50.848;4.596;2023-04-23T13:45:51;1.77;;;1.50;;
32026;SDS011;18543;50.848;4.596;2023-04-23T13:48:18;3.08;;;1.42;;
32026;SDS011;18543;50.848;4.596;2023-04-23T13:50:46;1.90;;;1.53;;
32026;SDS011;18543;50.848;4.596;2023-04-23T13:53:13;2.13;;;1.70;;
32026;SDS011;18543;50.848;4.596;2023-04-23T13:55:40;2.00;;;1.63;;
32026;SDS011;18543;50.848;4.596;2023-04-23T13:58:08;2.77;;;1.70;;
32026;SDS011;18543;50.848;4.596;2023-04-23T14:00:37;2.28;;;1.60;;
32026;SDS011;18543;50.848;4.596;2023-04-23T14:03:04;1.92;;;1.50;;
32026;SDS011;18543;50.848;4.596;2023-04-23T14:05:32;1.75;;;1.40;;
32026;SDS011;18543;50.848;4.596;2023-04-23T14:07:59;2.85;;;1.58;;
32026;SDS011;18543;50.848;4.596;2023-04-23T14:10:26;3.03;;;1.70;;
32026;SDS011;18543;50.848;4.596;2023-04-23T14:12:54;1.88;;;1.42;;
32026;SDS011;18543;50.848;4.596;2023-04-23T14:15:21;2.42;;;1.33;;
32026;SDS011;18543;50.848;4.596;2023-04-23T14:17:48;2.17;;;1.50;;
32026;SDS011;18543;50.848;4.596;2023-04-23T14:20:16;1.47;;;1.37;;
32026;SDS011;18543;50.848;4.596;2023-04-23T14:22:49;2.17;;;1.67;;
32026;SDS011;18543;50.848;4.596;2023-04-23T14:25:23;2.15;;;1.58;;
32026;SDS011;18543;50.848;4.596;2023-04-23T14:27:51;1.55;;;1.45;;
32026;SDS011;18543;50.848;4.596;2023-04-23T14:30:21;1.63;;;1.52;;
32026;SDS011;18543;50.848;4.596;2023-04-23T14:32:51;1.83;;;1.58;;
32026;SDS011;18543;50.848;4.596;2023-04-23T14:35:22;2.40;;;1.70;;
32026;SDS011;18543;50.848;4.596;2023-04-23T14:38:08;2.38;;;1.60;;
32026;SDS011;18543;50.848;4.596;2023-04-23T14:40:35;2.30;;;1.50;;
32026;SDS011;18543;50.848;4.596;2023-04-23T14:43:02;2.40;;;1.47;;
32026;SDS011;18543;50.848;4.596;2023-04-23T14:45:41;1.88;;;1.42;;
32026;SDS011;18543;50.848;4.596;2023-04-23T14:48:08;1.60;;;1.47;;
32026;SDS011;18543;50.848;4.596;2023-04-23T14:50:35;2.10;;;1.48;;
32026;SDS011;18543;50.848;4.596;2023-04-23T14:53:03;3.22;;;1.60;;
32026;SDS011;18543;50.848;4.596;2023-04-23T14:55:32;2.55;;;1.60;;
32026;SDS011;18543;50.848;4.596;2023-04-23T14:58:00;1.67;;;1.50;;
32026;SDS011;18543;50.848;4.596;2023-04-23T15:00:27;2.67;;;1.53;;
32026;SDS011;18543;50.848;4.596;2023-04-23T15:02:55;2.67;;;1.60;;
32026;SDS011;18543;50.848;4.596;2023-04-23T15:05:22;7.70;;;1.42;;
32026;SDS011;18543;50.848;4.596;2023-04-23T15:07:50;3.80;;;1.38;;
32026;SDS011;18543;50.848;4.596;2023-04-23T15:10:18;4.32;;;1.50;;
32026;SDS011;18543;50.848;4.596;2023-04-23T15:13:28;2.60;;;1.70;;
32026;SDS011;18543;50.848;4.596;2023-04-23T15:15:37;8.07;;;1.45;;
32026;SDS011;18543;50.848;4.596;2023-04-23T15:18:11;5.97;;;1.58;;
32026;SDS011;18543;50.848;4.596;2023-04-23T15:20:39;5.32;;;1.58;;